Terminal Aerodrome Forecast
Issued by NWS Norman, OK

Home | Current Version | Previous Version | Text Only | Print | Product List | Glossary On
Versions: 1 2 3 4 5 6 7 8 9 10 11 12 13 14 15 16 17 18
000
FTUS44 KOUN 210520
TAFOKC
TAF
KOKC 210520Z 2106/2206 20010KT P6SM SCT250
     FM211400 19012KT P6SM OVC100
     FM212000 16012KT P6SM OVC060 PROB30 2200/2206 4SM -SHRA BR
      BKN030=

USA.gov is the U.S. government's official web portal to all federal, state and local government web resources and services.